createdAt,value
2019-01-18T00:00:35.223Z,0.00
2019-01-18T00:01:35.192Z,0.00
2019-01-18T00:02:35.181Z,0.00
2019-01-18T00:03:35.193Z,0.00
2019-01-18T00:04:35.162Z,0.00
2019-01-18T00:05:35.159Z,0.00
2019-01-18T00:06:35.139Z,0.00
2019-01-18T00:07:35.133Z,0.00
2019-01-18T00:08:35.119Z,0.00
2019-01-18T00:09:35.132Z,0.00
2019-01-18T00:10:35.099Z,0.00
2019-01-18T00:11:35.090Z,0.00
2019-01-18T00:12:35.078Z,0.00
2019-01-18T00:13:35.077Z,0.00
2019-01-18T00:14:35.058Z,0.00
2019-01-18T00:15:35.054Z,0.00
2019-01-18T00:16:35.039Z,0.00
2019-01-18T00:17:35.031Z,0.00
2019-01-18T00:18:35.023Z,0.00
2019-01-18T00:19:35.014Z,0.00
2019-01-18T00:20:35.002Z,0.00
2019-01-18T00:21:34.992Z,0.00
2019-01-18T00:22:34.980Z,0.00
2019-01-18T00:23:34.969Z,0.00
2019-01-18T00:24:34.972Z,0.00
2019-01-18T00:25:34.965Z,0.00
2019-01-18T00:26:34.942Z,0.00
2019-01-18T00:27:34.930Z,0.00
2019-01-18T00:28:34.921Z,0.00
2019-01-18T00:29:34.926Z,0.00
2019-01-18T00:30:34.924Z,0.00
2019-01-18T00:31:34.911Z,0.00
2019-01-18T00:32:34.880Z,0.00
2019-01-18T00:33:34.874Z,0.00
2019-01-18T00:34:34.861Z,0.00
2019-01-18T00:35:34.851Z,0.00
2019-01-18T00:36:34.845Z,0.00
2019-01-18T00:37:34.830Z,0.00
2019-01-18T00:38:34.836Z,0.00
2019-01-18T00:39:34.811Z,0.00
2019-01-18T00:40:34.801Z,0.00
2019-01-18T00:41:34.799Z,0.00
2019-01-18T00:42:34.780Z,0.00
2019-01-18T00:43:34.772Z,0.00
2019-01-18T00:44:34.781Z,0.00
2019-01-18T00:45:34.762Z,0.00
2019-01-18T00:46:34.740Z,0.00
2019-01-18T00:47:34.733Z,0.00
2019-01-18T00:48:34.723Z,0.00
2019-01-18T00:49:34.711Z,0.00
2019-01-18T00:50:34.701Z,0.00
2019-01-18T00:51:34.715Z,0.00
2019-01-18T00:52:34.701Z,0.00
2019-01-18T00:53:34.671Z,0.00
2019-01-18T00:54:34.659Z,0.00
2019-01-18T00:55:34.664Z,0.00
2019-01-18T00:56:34.638Z,0.00
2019-01-18T00:57:34.636Z,0.00
2019-01-18T00:58:34.617Z,0.00
2019-01-18T00:59:36.428Z,0.00
2019-01-18T01:00:34.602Z,0.00
2019-01-18T01:01:34.587Z,0.00
2019-01-18T01:02:34.581Z,0.00
2019-01-18T01:03:34.574Z,0.00
2019-01-18T01:04:34.558Z,0.00
2019-01-18T01:05:34.547Z,0.00
2019-01-18T01:06:34.538Z,0.00
2019-01-18T01:07:34.527Z,0.00
2019-01-18T01:08:34.534Z,0.00
2019-01-18T01:09:34.507Z,0.00
2019-01-18T01:10:34.496Z,0.00
2019-01-18T01:11:34.487Z,0.00
2019-01-18T01:12:34.481Z,0.00
2019-01-18T01:13:34.468Z,0.00
2019-01-18T01:14:34.456Z,0.00
2019-01-18T01:15:34.446Z,0.00
2019-01-18T01:16:34.448Z,0.00
2019-01-18T01:17:34.423Z,0.00
2019-01-18T01:18:34.419Z,0.00
2019-01-18T01:19:34.431Z,0.00
2019-01-18T01:20:34.402Z,0.00
2019-01-18T01:21:34.382Z,0.00
2019-01-18T01:22:34.429Z,0.00
2019-01-18T01:23:34.400Z,0.00
2019-01-18T01:24:34.353Z,0.00
2019-01-18T01:25:34.348Z,0.00
2019-01-18T01:26:34.348Z,0.00
2019-01-18T01:27:34.337Z,0.00
2019-01-18T01:28:34.313Z,0.00
2019-01-18T01:29:34.303Z,0.00
2019-01-18T01:30:34.293Z,0.00
2019-01-18T01:31:34.282Z,0.00
2019-01-18T01:32:34.273Z,0.00
2019-01-18T01:33:34.263Z,0.00
2019-01-18T01:34:34.253Z,0.00
2019-01-18T01:35:34.241Z,0.00
2019-01-18T01:36:34.230Z,0.00
2019-01-18T01:37:34.243Z,0.00
2019-01-18T01:38:34.218Z,0.00
2019-01-18T01:39:34.251Z,0.00
2019-01-18T01:40:34.190Z,0.00
2019-01-18T01:41:34.180Z,0.00
2019-01-18T01:42:34.184Z,0.00
2019-01-18T01:43:34.158Z,0.00
2019-01-18T01:44:34.146Z,0.00
2019-01-18T01:45:34.136Z,0.00
2019-01-18T01:46:34.131Z,0.00
2019-01-18T01:47:34.114Z,0.00
2019-01-18T01:48:34.107Z,0.00
2019-01-18T01:49:34.095Z,0.00
2019-01-18T01:50:34.099Z,0.00
2019-01-18T01:51:34.072Z,0.00
2019-01-18T01:52:34.079Z,0.00
2019-01-18T01:53:34.051Z,0.00
2019-01-18T01:54:34.041Z,0.00
2019-01-18T01:55:34.032Z,0.00
2019-01-18T01:56:34.022Z,0.00
2019-01-18T01:57:34.015Z,0.00
2019-01-18T01:58:34.004Z,0.00
2019-01-18T01:59:33.992Z,0.00
2019-01-18T02:00:33.985Z,0.00
2019-01-18T02:01:33.969Z,0.00
2019-01-18T02:02:33.980Z,0.00
2019-01-18T02:03:33.949Z,0.00
2019-01-18T02:04:33.940Z,0.00
2019-01-18T02:05:33.932Z,0.00
2019-01-18T02:06:33.919Z,0.00
2019-01-18T02:07:33.926Z,0.00
2019-01-18T02:08:33.904Z,0.00
2019-01-18T02:09:33.891Z,0.00
2019-01-18T02:10:33.881Z,0.00
2019-01-18T02:11:33.868Z,0.00
2019-01-18T02:12:33.876Z,0.00
2019-01-18T02:13:33.850Z,0.00
2019-01-18T02:14:33.835Z,0.00
2019-01-18T02:15:33.834Z,0.00
2019-01-18T02:16:33.842Z,0.00
2019-01-18T02:17:33.808Z,0.00
2019-01-18T02:18:33.805Z,0.00
2019-01-18T02:19:33.814Z,0.00
2019-01-18T02:20:33.781Z,0.00
2019-01-18T02:21:33.770Z,0.00
2019-01-18T02:22:33.782Z,0.00
2019-01-18T02:23:33.764Z,0.00
2019-01-18T02:24:33.738Z,0.00
2019-01-18T02:25:33.735Z,0.00
2019-01-18T02:26:33.728Z,0.00
2019-01-18T02:27:33.715Z,0.00
2019-01-18T02:28:33.709Z,0.00
2019-01-18T02:29:33.692Z,0.00
2019-01-18T02:30:33.678Z,0.00
2019-01-18T02:31:33.669Z,0.00
2019-01-18T02:32:33.661Z,0.00
2019-01-18T02:33:35.316Z,0.00
2019-01-18T02:34:33.652Z,0.00
2019-01-18T02:35:33.627Z,0.00
2019-01-18T02:36:33.627Z,0.00
2019-01-18T02:37:33.624Z,0.00
2019-01-18T02:38:33.600Z,0.00
2019-01-18T02:39:33.591Z,0.00
2019-01-18T02:40:33.584Z,0.00
2019-01-18T02:41:33.569Z,0.00
2019-01-18T02:42:33.561Z,0.00
2019-01-18T02:43:33.552Z,0.00
2019-01-18T02:44:33.562Z,0.00
2019-01-18T02:45:33.534Z,0.00
2019-01-18T02:46:33.534Z,0.00
2019-01-18T02:47:33.521Z,0.00
2019-01-18T02:48:33.524Z,0.00
2019-01-18T02:49:33.497Z,0.00
2019-01-18T02:50:33.484Z,0.00
2019-01-18T02:51:33.480Z,0.00
2019-01-18T02:52:33.466Z,0.00
2019-01-18T02:53:33.459Z,0.00
2019-01-18T02:54:33.445Z,0.00
2019-01-18T02:55:33.434Z,0.00
2019-01-18T02:56:33.422Z,0.00
2019-01-18T02:57:33.415Z,0.00
2019-01-18T02:58:33.404Z,0.00
2019-01-18T02:59:33.391Z,0.00
2019-01-18T03:00:33.388Z,0.00
2019-01-18T03:01:33.380Z,0.00
2019-01-18T03:02:33.362Z,0.00
2019-01-18T03:03:33.358Z,0.00
2019-01-18T03:04:33.343Z,0.00
2019-01-18T03:05:33.334Z,0.00
2019-01-18T03:06:33.321Z,0.00
2019-01-18T03:07:33.315Z,0.00
2019-01-18T03:08:33.338Z,0.00
2019-01-18T03:09:33.315Z,0.00
2019-01-18T03:10:33.305Z,0.00
2019-01-18T03:11:33.309Z,0.00
2019-01-18T03:12:33.266Z,0.00
2019-01-18T03:13:33.255Z,0.00
2019-01-18T03:14:33.245Z,0.00
2019-01-18T03:15:33.232Z,0.00
2019-01-18T03:16:33.221Z,0.00
2019-01-18T03:17:33.208Z,0.00
2019-01-18T03:18:33.225Z,0.00
2019-01-18T03:19:33.194Z,0.00
2019-01-18T03:20:33.181Z,0.00
2019-01-18T03:21:33.192Z,0.00
2019-01-18T03:22:33.158Z,0.00
2019-01-18T03:23:33.157Z,0.00
2019-01-18T03:24:33.150Z,0.00
2019-01-18T03:25:33.162Z,0.00
2019-01-18T03:26:33.148Z,0.00
2019-01-18T03:27:33.118Z,0.00
2019-01-18T03:28:33.105Z,0.00
2019-01-18T03:29:33.088Z,0.00
2019-01-18T03:30:33.078Z,0.00
2019-01-18T03:31:33.100Z,0.00
2019-01-18T03:32:33.061Z,0.00
2019-01-18T03:33:33.047Z,0.00
2019-01-18T03:34:33.035Z,0.00
2019-01-18T03:35:33.078Z,0.00
2019-01-18T03:36:33.041Z,0.00
2019-01-18T03:37:33.013Z,0.00
2019-01-18T03:38:33.003Z,0.00
2019-01-18T03:39:32.993Z,0.00
2019-01-18T03:40:32.977Z,0.00
2019-01-18T03:41:32.999Z,0.00
2019-01-18T03:42:32.977Z,0.00
2019-01-18T03:43:32.953Z,0.00
2019-01-18T03:44:32.937Z,0.00
2019-01-18T03:45:32.935Z,0.00
2019-01-18T03:46:32.913Z,0.00
2019-01-18T03:47:32.905Z,0.00
2019-01-18T03:48:32.895Z,0.00
2019-01-18T03:49:32.884Z,0.00
2019-01-18T03:50:32.872Z,0.00
2019-01-18T03:51:32.866Z,0.00
2019-01-18T03:52:32.852Z,0.00
2019-01-18T03:53:32.885Z,0.00
2019-01-18T03:54:32.835Z,0.00
2019-01-18T03:55:32.818Z,0.00
2019-01-18T03:56:32.857Z,0.00
2019-01-18T03:57:32.799Z,0.00
2019-01-18T03:58:32.811Z,0.00
2019-01-18T03:59:32.807Z,0.00
2019-01-18T04:00:32.776Z,0.00
2019-01-18T04:01:32.760Z,0.00
2019-01-18T04:02:32.782Z,0.00
2019-01-18T04:03:32.741Z,0.00
2019-01-18T04:04:40.221Z,0.00
2019-01-18T04:06:26.460Z,0.00
2019-01-18T04:07:26.253Z,0.00
2019-01-18T04:09:19.202Z,0.00
2019-01-18T04:10:19.160Z,0.00
2019-01-18T04:12:12.571Z,0.00
2019-01-18T04:13:12.508Z,0.00
2019-01-18T04:15:05.924Z,0.00
2019-01-18T04:16:05.787Z,0.00
2019-01-18T04:17:58.779Z,0.00
2019-01-18T04:18:58.643Z,0.00
2019-01-18T04:20:52.144Z,0.00
2019-01-18T04:21:51.936Z,0.00
2019-01-18T04:23:45.085Z,0.00
2019-01-18T04:24:44.848Z,0.00
2019-01-18T04:26:38.308Z,0.00
2019-01-18T04:27:38.554Z,0.00
2019-01-18T04:29:31.106Z,0.00
2019-01-18T04:30:33.661Z,0.00
2019-01-18T04:32:23.966Z,0.00
2019-01-18T04:33:23.993Z,0.00
2019-01-18T04:35:16.870Z,0.00
2019-01-18T04:36:16.780Z,0.00
2019-01-18T04:38:10.253Z,0.00
2019-01-18T04:39:10.143Z,0.00
2019-01-18T04:41:03.575Z,0.00
2019-01-18T04:42:03.424Z,0.00
2019-01-18T04:43:56.404Z,0.00
2019-01-18T04:44:56.250Z,0.00
2019-01-18T04:46:49.660Z,0.00
2019-01-18T04:47:49.647Z,0.00
2019-01-18T04:49:42.752Z,0.00
2019-01-18T04:50:42.657Z,0.00
2019-01-18T04:52:36.160Z,0.00
2019-01-18T04:53:35.898Z,0.00
2019-01-18T04:55:28.958Z,0.00
2019-01-18T04:56:28.778Z,0.00
2019-01-18T04:58:22.260Z,0.00
2019-01-18T04:59:22.267Z,0.00
2019-01-18T05:01:15.113Z,0.00
2019-01-18T05:02:14.991Z,0.00
2019-01-18T05:04:08.534Z,0.00
2019-01-18T05:05:08.308Z,0.00
2019-01-18T05:07:01.680Z,0.00
2019-01-18T05:08:01.642Z,0.00
2019-01-18T05:09:54.678Z,0.00
2019-01-18T05:10:54.503Z,0.00
2019-01-18T05:12:48.570Z,0.00
2019-01-18T05:13:48.365Z,0.00
2019-01-18T05:15:42.337Z,0.00
2019-01-18T05:16:41.926Z,0.00
2019-01-18T05:18:35.437Z,0.00
2019-01-18T05:19:35.316Z,0.00
2019-01-18T06:40:09.473Z,0.00
2019-01-18T06:41:09.263Z,4.00
2019-01-18T06:43:02.929Z,4.00
2019-01-18T06:44:02.663Z,4.00
2019-01-18T06:45:56.046Z,8.00
2019-01-18T06:46:55.934Z,8.00
2019-01-18T06:48:49.483Z,12.00
2019-01-18T06:49:49.299Z,12.00
2019-01-18T06:51:42.958Z,20.00
2019-01-18T06:52:42.701Z,24.00
2019-01-18T06:54:36.148Z,32.00
2019-01-18T06:55:35.935Z,36.00
2019-01-18T06:57:29.437Z,40.00
2019-01-18T06:58:29.272Z,48.00
2019-01-18T07:00:22.607Z,64.00
2019-01-18T07:01:22.608Z,68.00
2019-01-18T07:03:15.993Z,84.00
2019-01-18T07:04:15.971Z,96.00
2019-01-18T07:06:08.830Z,112.00
2019-01-18T07:07:08.752Z,120.00
2019-01-18T07:09:02.420Z,144.00
2019-01-18T07:10:02.200Z,156.00
2019-01-18T07:11:55.115Z,180.00
2019-01-18T07:12:54.948Z,192.00
2019-01-18T07:14:48.298Z,220.00
2019-01-18T07:15:48.232Z,236.00
2019-01-18T07:17:41.754Z,268.00
2019-01-18T07:18:41.576Z,284.00
2019-01-18T07:20:35.014Z,316.00
2019-01-18T07:21:34.973Z,336.00
2019-01-18T07:23:27.871Z,364.00
2019-01-18T07:24:27.711Z,384.00
2019-01-18T07:26:21.254Z,420.00
2019-01-18T07:27:21.027Z,440.00
2019-01-18T07:29:14.040Z,472.00
2019-01-18T07:30:13.833Z,492.00
2019-01-18T07:32:06.777Z,524.00
2019-01-18T07:33:06.696Z,544.00
2019-01-18T07:35:00.290Z,580.00
2019-01-18T07:36:00.010Z,600.00
2019-01-18T07:37:53.591Z,640.00
2019-01-18T07:38:53.409Z,660.00
2019-01-18T07:40:46.394Z,700.00
2019-01-18T07:41:46.214Z,716.00
2019-01-18T07:43:39.723Z,772.00
2019-01-18T07:44:39.663Z,780.00
2019-01-18T07:46:32.617Z,820.00
2019-01-18T07:47:32.542Z,836.00
2019-01-18T07:49:25.580Z,872.00
2019-01-18T07:50:25.243Z,892.00
2019-01-18T07:52:18.797Z,924.00
2019-01-18T07:53:18.665Z,940.00
2019-01-18T07:55:12.302Z,976.00
2019-01-18T07:56:12.286Z,996.00
2019-01-18T07:58:04.999Z,1028.00
2019-01-18T07:59:04.838Z,1044.00
2019-01-18T08:00:58.459Z,1080.00
2019-01-18T08:01:58.204Z,1104.00
2019-01-18T08:03:52.085Z,1140.00
2019-01-18T08:04:51.824Z,1156.00
2019-01-18T08:06:45.116Z,1204.00
2019-01-18T08:07:44.739Z,1224.00
2019-01-18T08:09:38.407Z,1260.00
2019-01-18T08:10:38.153Z,1272.00
2019-01-18T08:12:31.816Z,1304.00
2019-01-18T08:13:31.420Z,1324.00
2019-01-18T08:15:25.141Z,1356.00
2019-01-18T08:16:24.763Z,1376.00
2019-01-18T08:18:18.452Z,1404.00
2019-01-18T08:19:18.354Z,1420.00
2019-01-18T08:21:11.459Z,1444.00
2019-01-18T08:22:11.373Z,1460.00
2019-01-18T08:24:04.519Z,1492.00
2019-01-18T08:25:04.641Z,1508.00
2019-01-18T08:26:57.943Z,1532.00
2019-01-18T08:27:57.912Z,1544.00
2019-01-18T08:29:51.151Z,1576.00
2019-01-18T08:30:50.951Z,1612.00
2019-01-18T08:32:44.554Z,1696.00
2019-01-18T08:33:44.190Z,1732.00
2019-01-18T08:35:38.040Z,1764.00
2019-01-18T08:36:37.781Z,1784.00
2019-01-18T08:38:31.354Z,1820.00
2019-01-18T08:39:31.773Z,1840.00
2019-01-18T08:41:24.908Z,1872.00
2019-01-18T08:42:24.353Z,1892.00
2019-01-18T08:44:17.814Z,1924.00
2019-01-18T08:45:17.621Z,1944.00
2019-01-18T08:47:11.255Z,1984.00
2019-01-18T08:48:10.935Z,2008.00
2019-01-18T08:50:03.971Z,2068.00
2019-01-18T08:51:03.938Z,2096.00
2019-01-18T08:52:56.673Z,2164.00
2019-01-18T08:53:56.622Z,2240.00
2019-01-18T08:55:50.160Z,5012.00
2019-01-18T08:56:49.997Z,6768.00
2019-01-18T08:58:43.326Z,23648.00
2019-01-18T08:59:43.311Z,22336.00
2019-01-18T09:01:36.318Z,16832.00
2019-01-18T09:02:36.131Z,9280.00
2019-01-18T09:04:29.514Z,10876.00
2019-01-18T09:05:29.813Z,14272.00
2019-01-18T09:07:23.611Z,51424.00
2019-01-18T09:08:23.627Z,54304.00
2019-01-18T09:09:23.533Z,54848.00
2019-01-18T09:10:23.444Z,54208.00
2019-01-18T09:11:23.626Z,48896.00
2019-01-18T09:12:23.239Z,37088.00
2019-01-18T09:13:23.226Z,24448.00
2019-01-18T09:14:23.263Z,36320.00
2019-01-18T09:15:23.277Z,50752.00
2019-01-18T09:16:23.220Z,50176.00
2019-01-18T09:17:23.228Z,53824.00
2019-01-18T09:18:23.210Z,49376.00
2019-01-18T09:19:23.207Z,43936.00
2019-01-18T09:20:23.207Z,49568.00
2019-01-18T09:21:23.202Z,45632.00
2019-01-18T09:22:23.202Z,38048.00
2019-01-18T09:23:23.203Z,41312.00
2019-01-18T09:24:23.203Z,52096.00
2019-01-18T09:25:23.202Z,39968.00
2019-01-18T09:26:23.217Z,41568.00
2019-01-18T09:27:23.224Z,42432.00
2019-01-18T09:28:23.207Z,33536.00
2019-01-18T09:29:23.214Z,23008.00
2019-01-18T09:30:23.207Z,20640.00
2019-01-18T09:31:23.212Z,32480.00
2019-01-18T09:32:23.218Z,34144.00
2019-01-18T09:33:23.222Z,32832.00
2019-01-18T09:34:23.220Z,40512.00
2019-01-18T09:35:23.219Z,51776.00
2019-01-18T09:36:23.830Z,53888.00
2019-01-18T09:37:23.230Z,54784.00
2019-01-18T09:38:23.242Z,55168.00
2019-01-18T09:39:23.256Z,54752.00
2019-01-18T09:40:23.277Z,51648.00
2019-01-18T09:41:23.255Z,47232.00
2019-01-18T09:42:23.239Z,41376.00
2019-01-18T09:43:23.301Z,43232.00
2019-01-18T09:44:23.310Z,55648.00
2019-01-18T09:45:23.257Z,65568.00
2019-01-18T09:46:23.271Z,67648.00
2019-01-18T09:47:23.268Z,69120.00
2019-01-18T09:48:23.290Z,69152.00
2019-01-18T09:49:23.272Z,68544.00
2019-01-18T09:50:23.296Z,69120.00
2019-01-18T09:51:23.338Z,71456.00
2019-01-18T09:52:23.355Z,69792.00
2019-01-18T09:53:23.291Z,63680.00
2019-01-18T09:54:23.297Z,64224.00
2019-01-18T09:55:23.332Z,66976.00
2019-01-18T09:56:23.320Z,66560.00
2019-01-18T09:57:23.323Z,66304.00
2019-01-18T09:58:23.329Z,65216.00
2019-01-18T09:59:23.353Z,64480.00
2019-01-18T10:00:23.366Z,66176.00
2019-01-18T10:01:23.379Z,68064.00
2019-01-18T10:02:23.373Z,70336.00
2019-01-18T10:03:23.386Z,71584.00
2019-01-18T10:04:23.405Z,72128.00
2019-01-18T10:05:23.406Z,71520.00
2019-01-18T10:06:23.399Z,71232.00
2019-01-18T10:07:23.384Z,73024.00
2019-01-18T10:08:23.396Z,73376.00
2019-01-18T10:09:23.411Z,72288.00
2019-01-18T10:10:23.410Z,73504.00
2019-01-18T10:11:23.418Z,74912.00
2019-01-18T10:12:23.423Z,74016.00
2019-01-18T10:13:23.430Z,72832.00
2019-01-18T10:14:23.448Z,72704.00
2019-01-18T10:15:23.462Z,72960.00
2019-01-18T10:16:23.455Z,73152.00
2019-01-18T10:17:23.479Z,74016.00
2019-01-18T10:18:23.510Z,73056.00
2019-01-18T10:19:23.484Z,71424.00
2019-01-18T10:20:23.491Z,73664.00
2019-01-18T10:21:23.504Z,74560.00
2019-01-18T10:22:23.507Z,74208.00
2019-01-18T10:23:23.522Z,74752.00
2019-01-18T10:24:23.532Z,74848.00
2019-01-18T10:25:23.538Z,74496.00
2019-01-18T10:26:23.556Z,74080.00
2019-01-18T10:27:23.973Z,75712.00
2019-01-18T10:28:23.561Z,75328.00
2019-01-18T10:29:28.089Z,76672.00
2019-01-18T10:30:23.581Z,79456.00
2019-01-18T10:31:23.597Z,78272.00
2019-01-18T10:32:23.598Z,78016.00
2019-01-18T10:33:23.612Z,77536.00
2019-01-18T10:34:23.636Z,79200.00
2019-01-18T10:35:23.633Z,78656.00
2019-01-18T10:36:23.648Z,80896.00
2019-01-18T10:37:23.651Z,80672.00
2019-01-18T10:38:23.659Z,80896.00
2019-01-18T10:39:23.662Z,80384.00
2019-01-18T10:40:23.675Z,79232.00
2019-01-18T10:41:23.681Z,79488.00
2019-01-18T10:42:23.694Z,80768.00
2019-01-18T10:43:23.701Z,83840.00
2019-01-18T10:44:23.726Z,82304.00
2019-01-18T10:45:23.720Z,80672.00
2019-01-18T10:46:23.736Z,79680.00
2019-01-18T10:47:23.743Z,80768.00
2019-01-18T10:48:23.806Z,82816.00
2019-01-18T10:49:23.780Z,84480.00
2019-01-18T10:50:23.812Z,84576.00
2019-01-18T10:51:23.788Z,81248.00
2019-01-18T10:52:23.789Z,77024.00
2019-01-18T10:53:23.804Z,79136.00
2019-01-18T10:54:23.807Z,81408.00
2019-01-18T10:55:23.821Z,82464.00
2019-01-18T10:56:23.833Z,83136.00
2019-01-18T10:57:23.845Z,80832.00
2019-01-18T10:58:23.850Z,81408.00
2019-01-18T10:59:23.857Z,81312.00
2019-01-18T11:00:23.873Z,75488.00
2019-01-18T11:01:23.905Z,38720.00
2019-01-18T11:02:23.888Z,6960.00
2019-01-18T11:03:23.888Z,4124.00
2019-01-18T11:04:23.892Z,3536.00
2019-01-18T11:05:23.927Z,3356.00
2019-01-18T11:06:23.904Z,3332.00
2019-01-18T11:07:23.937Z,3324.00
2019-01-18T11:08:23.913Z,3304.00
2019-01-18T11:09:23.919Z,3296.00
2019-01-18T11:10:23.957Z,3284.00
2019-01-18T11:11:23.959Z,3280.00
2019-01-18T11:12:23.983Z,3276.00
2019-01-18T11:13:23.946Z,3268.00
2019-01-18T11:14:23.980Z,3248.00
2019-01-18T11:15:24.900Z,3236.00
2019-01-18T11:16:23.964Z,3224.00
2019-01-18T11:17:23.958Z,3216.00
2019-01-18T11:18:23.955Z,3208.00
2019-01-18T11:19:23.954Z,3192.00
2019-01-18T11:20:23.952Z,3172.00
2019-01-18T11:21:23.967Z,3152.00
2019-01-18T11:22:23.982Z,3136.00
2019-01-18T11:23:23.955Z,3124.00
2019-01-18T11:24:23.960Z,3112.00
2019-01-18T11:25:23.958Z,3096.00
2019-01-18T11:26:23.985Z,3072.00
2019-01-18T11:27:23.967Z,3048.00
2019-01-18T11:28:23.956Z,3024.00
2019-01-18T11:29:23.950Z,3000.00
2019-01-18T11:30:23.954Z,2976.00
2019-01-18T11:31:23.966Z,2960.00
2019-01-18T11:32:23.952Z,2928.00
2019-01-18T11:33:23.954Z,2904.00
2019-01-18T11:34:23.950Z,2872.00
2019-01-18T11:35:23.946Z,2848.00
2019-01-18T11:36:23.948Z,2820.00
2019-01-18T11:37:23.973Z,2800.00
2019-01-18T11:38:23.940Z,2784.00
2019-01-18T11:39:23.944Z,2768.00
2019-01-18T11:40:23.964Z,2748.00
2019-01-18T11:41:23.932Z,2740.00
2019-01-18T11:42:23.936Z,2724.00
2019-01-18T11:43:23.965Z,2712.00
2019-01-18T11:44:23.930Z,2708.00
2019-01-18T11:45:23.947Z,2696.00
2019-01-18T11:46:23.922Z,2680.00
2019-01-18T11:47:23.971Z,2668.00
2019-01-18T11:48:23.939Z,2664.00
2019-01-18T11:49:23.912Z,2624.00
2019-01-18T11:50:23.908Z,2576.00
2019-01-18T11:51:23.914Z,2528.00
2019-01-18T11:52:23.928Z,2468.00
2019-01-18T11:53:23.954Z,2416.00
2019-01-18T11:54:23.923Z,2372.00
2019-01-18T11:55:23.925Z,2336.00
2019-01-18T11:56:23.922Z,2296.00
2019-01-18T11:57:23.892Z,2260.00
2019-01-18T11:58:23.886Z,2228.00
2019-01-18T11:59:23.881Z,2192.00
2019-01-18T12:00:23.902Z,2168.00
2019-01-18T12:01:23.987Z,2148.00
2019-01-18T12:02:23.895Z,2120.00
2019-01-18T12:03:23.892Z,2096.00
2019-01-18T12:04:23.905Z,2088.00
2019-01-18T12:05:23.948Z,2060.00
2019-01-18T12:06:23.893Z,2036.00
2019-01-18T12:07:23.851Z,2016.00
2019-01-18T12:08:23.905Z,1996.00
2019-01-18T12:09:23.885Z,1980.00
2019-01-18T12:10:23.861Z,1960.00
2019-01-18T12:11:23.882Z,1936.00
2019-01-18T12:12:23.873Z,1916.00
2019-01-18T12:13:23.830Z,1900.00
2019-01-18T12:14:23.853Z,1888.00
2019-01-18T12:15:23.851Z,1872.00
2019-01-18T12:16:23.852Z,1872.00
2019-01-18T12:17:23.886Z,1852.00
2019-01-18T12:18:23.808Z,1840.00
2019-01-18T12:19:23.793Z,1828.00
2019-01-18T12:20:23.799Z,1812.00
2019-01-18T12:21:23.810Z,1812.00
2019-01-18T12:22:23.805Z,1804.00
2019-01-18T12:23:23.796Z,1804.00
2019-01-18T12:24:23.790Z,1796.00
2019-01-18T12:25:23.842Z,1788.00
2019-01-18T12:26:23.808Z,1784.00
2019-01-18T12:27:23.821Z,1780.00
2019-01-18T12:28:23.786Z,1776.00
2019-01-18T12:29:23.776Z,1772.00
2019-01-18T12:30:23.748Z,1768.00
2019-01-18T12:31:23.724Z,1760.00
2019-01-18T12:32:28.723Z,1756.00
2019-01-18T12:33:23.708Z,1752.00
2019-01-18T12:34:23.701Z,1744.00
2019-01-18T12:35:23.724Z,1740.00
2019-01-18T12:36:23.711Z,1736.00
2019-01-18T12:37:23.727Z,1736.00
2019-01-18T12:38:23.673Z,1728.00
2019-01-18T12:39:23.683Z,1724.00
2019-01-18T12:40:23.709Z,1716.00
2019-01-18T12:41:23.675Z,1720.00
2019-01-18T12:42:23.658Z,1712.00
2019-01-18T12:43:23.674Z,1708.00
2019-01-18T12:44:23.984Z,1700.00
2019-01-18T12:45:23.640Z,1688.00
2019-01-18T12:46:23.659Z,1672.00
2019-01-18T12:47:23.621Z,1668.00
2019-01-18T12:48:23.613Z,1660.00
2019-01-18T12:49:23.612Z,1652.00
2019-01-18T12:50:23.679Z,1644.00
2019-01-18T12:51:23.646Z,1636.00
2019-01-18T12:52:23.595Z,1632.00
2019-01-18T12:53:23.585Z,1620.00
2019-01-18T12:54:23.607Z,1616.00
2019-01-18T12:55:23.581Z,1604.00
2019-01-18T12:56:23.596Z,1604.00
2019-01-18T12:57:23.597Z,1600.00
2019-01-18T12:58:23.621Z,1592.00
2019-01-18T12:59:23.550Z,1592.00
2019-01-18T13:00:23.552Z,1588.00
2019-01-18T13:01:23.552Z,1580.00
2019-01-18T13:02:35.334Z,1568.00
2019-01-18T13:04:16.665Z,1564.00
2019-01-18T13:05:17.013Z,1560.00
2019-01-18T13:07:10.137Z,1552.00
2019-01-18T13:08:09.781Z,1544.00
2019-01-18T13:10:03.600Z,1536.00
2019-01-18T13:11:03.605Z,1528.00
2019-01-18T13:12:57.003Z,1516.00
2019-01-18T13:13:56.757Z,1512.00
2019-01-18T13:14:57.366Z,1476.00
2019-01-18T13:15:56.723Z,1492.00
2019-01-18T13:16:56.858Z,1484.00
2019-01-18T13:17:57.592Z,1480.00
2019-01-18T13:18:56.605Z,1472.00
2019-01-18T13:19:57.545Z,1464.00
2019-01-18T13:20:56.687Z,1464.00
2019-01-18T13:21:56.560Z,1460.00
2019-01-18T13:22:56.564Z,1460.00
2019-01-18T13:23:56.552Z,1456.00
2019-01-18T13:25:03.949Z,1448.00
2019-01-18T13:26:50.351Z,1444.00
2019-01-18T13:27:50.800Z,1444.00
2019-01-18T13:29:43.022Z,1448.00
2019-01-18T13:30:43.108Z,1440.00
2019-01-18T13:32:41.577Z,1436.00
2019-01-18T13:33:36.713Z,1436.00
2019-01-18T13:35:31.829Z,1436.00
2019-01-18T13:36:31.409Z,1436.00
2019-01-18T13:37:31.344Z,1444.00
2019-01-18T13:38:31.233Z,1464.00
2019-01-18T13:39:31.411Z,1496.00
2019-01-18T13:40:31.040Z,1540.00
2019-01-18T13:41:31.077Z,1588.00
2019-01-18T13:42:31.113Z,1660.00
2019-01-18T13:43:31.049Z,1772.00
2019-01-18T13:44:30.974Z,1936.00
2019-01-18T13:45:31.043Z,2260.00
2019-01-18T13:46:30.971Z,2620.00
2019-01-18T13:47:30.992Z,3004.00
2019-01-18T13:48:31.017Z,3428.00
2019-01-18T13:49:30.984Z,3772.00
2019-01-18T13:50:30.970Z,4140.00
2019-01-18T13:51:30.947Z,4508.00
2019-01-18T13:52:31.034Z,4844.00
2019-01-18T13:53:31.666Z,5648.00
2019-01-18T13:55:24.670Z,10964.00
2019-01-18T13:56:24.635Z,16256.00
2019-01-18T13:58:17.551Z,24992.00
2019-01-18T13:59:17.669Z,28672.00
2019-01-18T14:00:17.377Z,33280.00
2019-01-18T14:01:17.761Z,39776.00
2019-01-18T14:02:17.204Z,43520.00
2019-01-18T14:03:17.194Z,45024.00
2019-01-18T14:04:17.253Z,44832.00
2019-01-18T14:05:17.207Z,44032.00
2019-01-18T14:06:17.198Z,43296.00
2019-01-18T14:07:17.193Z,42848.00
2019-01-18T14:08:17.191Z,43648.00
2019-01-18T14:09:17.164Z,43872.00
2019-01-18T14:10:17.179Z,44032.00
2019-01-18T14:11:17.151Z,44096.00
2019-01-18T14:12:17.867Z,44416.00
2019-01-18T14:13:17.195Z,43936.00
2019-01-18T14:14:17.124Z,42304.00
2019-01-18T14:15:17.160Z,40096.00
2019-01-18T14:16:17.361Z,39616.00
2019-01-18T14:17:18.148Z,40320.00
2019-01-18T14:18:17.136Z,40224.00
2019-01-18T14:19:17.120Z,39936.00
2019-01-18T14:20:20.878Z,39648.00
2019-01-18T14:21:24.380Z,41568.00
2019-01-18T14:23:10.621Z,42848.00
2019-01-18T14:24:10.571Z,41568.00
2019-01-18T14:26:03.535Z,37792.00
2019-01-18T14:27:03.720Z,26880.00
2019-01-18T14:28:56.878Z,3852.00
2019-01-18T14:29:56.858Z,3480.00
2019-01-18T14:31:49.735Z,2896.00
2019-01-18T14:32:55.461Z,2248.00
2019-01-18T14:34:43.612Z,2328.00
2019-01-18T14:35:43.152Z,2036.00
2019-01-18T14:37:36.177Z,2280.00
2019-01-18T14:38:36.324Z,2004.00
2019-01-18T14:39:43.373Z,1760.00
2019-01-18T14:41:31.165Z,2264.00
2019-01-18T14:42:32.246Z,2580.00
2019-01-18T14:44:23.236Z,2444.00
2019-01-18T14:45:22.959Z,2348.00
2019-01-18T14:47:16.715Z,2012.00
2019-01-18T14:48:16.474Z,1764.00
2019-01-18T14:50:10.096Z,988.00
2019-01-18T14:51:09.816Z,940.00
2019-01-18T14:53:02.885Z,1124.00
2019-01-18T14:54:02.623Z,1232.00
2019-01-18T14:55:56.307Z,876.00
2019-01-18T14:56:57.995Z,684.00
2019-01-18T14:57:55.975Z,660.00
2019-01-18T14:58:56.112Z,648.00
2019-01-18T14:59:55.901Z,628.00
2019-01-18T15:00:55.880Z,612.00
2019-01-18T15:01:55.859Z,592.00
2019-01-18T15:03:02.051Z,576.00
2019-01-18T15:03:55.843Z,560.00
2019-01-18T15:04:55.851Z,548.00
2019-01-18T15:05:55.839Z,532.00
2019-01-18T15:06:55.823Z,516.00
2019-01-18T15:07:55.809Z,500.00
2019-01-18T15:08:55.830Z,488.00
2019-01-18T15:09:57.646Z,476.00
2019-01-18T15:10:55.817Z,468.00
2019-01-18T15:11:55.847Z,452.00
2019-01-18T15:12:55.770Z,440.00
2019-01-18T15:13:55.769Z,424.00
2019-01-18T15:14:55.754Z,408.00
2019-01-18T15:15:55.746Z,392.00
2019-01-18T15:16:55.761Z,376.00
2019-01-18T15:17:55.742Z,360.00
2019-01-18T15:18:55.722Z,344.00